sensor_id;sensor_type;location;lat;lon;timestamp;temperature;humidity
74488;DHT22;63019;51.080;13.642;2023-06-26T00:01:00;19.30;99.90
74488;DHT22;63019;51.080;13.642;2023-06-26T00:02:03;19.20;99.90
74488;DHT22;63019;51.080;13.642;2023-06-26T00:03:05;19.20;99.90
74488;DHT22;63019;51.080;13.642;2023-06-26T00:04:07;19.20;99.90
74488;DHT22;63019;51.080;13.642;2023-06-26T00:05:09;19.20;99.90
74488;DHT22;63019;51.080;13.642;2023-06-26T00:06:11;19.20;99.90
74488;DHT22;63019;51.080;13.642;2023-06-26T00:07:13;19.20;99.90
74488;DHT22;63019;51.080;13.642;2023-06-26T00:08:14;19.20;99.90
74488;DHT22;63019;51.080;13.642;2023-06-26T00:09:16;19.20;99.90
74488;DHT22;63019;51.080;13.642;2023-06-26T00:10:18;19.20;99.90
74488;DHT22;63019;51.080;13.642;2023-06-26T00:11:21;19.20;99.90
74488;DHT22;63019;51.080;13.642;2023-06-26T00:12:23;19.10;99.90
74488;DHT22;63019;51.080;13.642;2023-06-26T00:13:25;19.20;99.90
74488;DHT22;63019;51.080;13.642;2023-06-26T00:14:27;19.20;99.90
74488;DHT22;63019;51.080;13.642;2023-06-26T00:15:29;19.20;99.90
74488;DHT22;63019;51.080;13.642;2023-06-26T00:16:33;19.10;99.90
74488;DHT22;63019;51.080;13.642;2023-06-26T00:17:35;19.20;99.90
74488;DHT22;63019;51.080;13.642;2023-06-26T00:18:39;19.10;99.90
74488;DHT22;63019;51.080;13.642;2023-06-26T00:19:41;19.10;99.90
74488;DHT22;63019;51.080;13.642;2023-06-26T00:20:43;19.10;99.90
74488;DHT22;63019;51.080;13.642;2023-06-26T00:21:45;19.10;99.90
74488;DHT22;63019;51.080;13.642;2023-06-26T00:22:49;19.00;99.90
74488;DHT22;63019;51.080;13.642;2023-06-26T00:23:52;19.00;99.90
74488;DHT22;63019;51.080;13.642;2023-06-26T00:24:54;19.00;99.90
74488;DHT22;63019;51.080;13.642;2023-06-26T00:25:56;19.00;99.90
74488;DHT22;63019;51.080;13.642;2023-06-26T00:26:57;19.00;99.90
74488;DHT22;63019;51.080;13.642;2023-06-26T00:28:00;19.00;99.90
74488;DHT22;63019;51.080;13.642;2023-06-26T00:29:02;19.00;99.90
74488;DHT22;63019;51.080;13.642;2023-06-26T00:30:05;19.00;99.90
74488;DHT22;63019;51.080;13.642;2023-06-26T00:31:07;19.00;99.90
74488;DHT22;63019;51.080;13.642;2023-06-26T00:32:08;19.00;99.90
74488;DHT22;63019;51.080;13.642;2023-06-26T00:33:10;18.90;99.90
74488;DHT22;63019;51.080;13.642;2023-06-26T00:34:12;18.90;99.90
74488;DHT22;63019;51.080;13.642;2023-06-26T00:35:14;18.90;99.90
74488;DHT22;63019;51.080;13.642;2023-06-26T00:36:16;18.90;99.90
74488;DHT22;63019;51.080;13.642;2023-06-26T00:37:18;18.90;99.90
74488;DHT22;63019;51.080;13.642;2023-06-26T00:38:19;18.90;99.90
74488;DHT22;63019;51.080;13.642;2023-06-26T00:39:21;18.90;99.90
74488;DHT22;63019;51.080;13.642;2023-06-26T00:40:23;18.90;99.90
74488;DHT22;63019;51.080;13.642;2023-06-26T00:41:25;18.90;99.90
74488;DHT22;63019;51.080;13.642;2023-06-26T00:42:27;18.80;99.90
74488;DHT22;63019;51.080;13.642;2023-06-26T00:43:29;18.80;99.90
74488;DHT22;63019;51.080;13.642;2023-06-26T00:44:31;18.80;99.90
74488;DHT22;63019;51.080;13.642;2023-06-26T00:45:34;18.80;99.90
74488;DHT22;63019;51.080;13.642;2023-06-26T00:46:43;18.80;99.90
74488;DHT22;63019;51.080;13.642;2023-06-26T00:47:45;18.80;99.90
74488;DHT22;63019;51.080;13.642;2023-06-26T00:48:48;18.80;99.90
74488;DHT22;63019;51.080;13.642;2023-06-26T00:49:51;18.80;99.90
74488;DHT22;63019;51.080;13.642;2023-06-26T00:50:53;18.80;99.90
74488;DHT22;63019;51.080;13.642;2023-06-26T00:51:55;18.80;99.90
74488;DHT22;63019;51.080;13.642;2023-06-26T00:52:57;18.80;99.90
74488;DHT22;63019;51.080;13.642;2023-06-26T00:54:02;18.80;99.90
74488;DHT22;63019;51.080;13.642;2023-06-26T00:55:04;18.80;99.90
74488;DHT22;63019;51.080;13.642;2023-06-26T00:56:06;18.80;99.90
74488;DHT22;63019;51.080;13.642;2023-06-26T00:57:09;18.80;99.90
74488;DHT22;63019;51.080;13.642;2023-06-26T00:58:11;18.80;99.90
74488;DHT22;63019;51.080;13.642;2023-06-26T00:59:14;18.80;99.90
74488;DHT22;63019;51.080;13.642;2023-06-26T01:00:16;18.70;99.90
74488;DHT22;63019;51.080;13.642;2023-06-26T01:01:18;18.70;99.90
74488;DHT22;63019;51.080;13.642;2023-06-26T01:02:27;18.60;99.90
74488;DHT22;63019;51.080;13.642;2023-06-26T01:03:35;18.60;99.90
74488;DHT22;63019;51.080;13.642;2023-06-26T01:04:39;18.50;99.90
74488;DHT22;63019;51.080;13.642;2023-06-26T01:05:50;18.50;99.90
74488;DHT22;63019;51.080;13.642;2023-06-26T01:06:53;18.40;99.90
74488;DHT22;63019;51.080;13.642;2023-06-26T01:07:57;18.40;99.90
74488;DHT22;63019;51.080;13.642;2023-06-26T01:08:59;18.30;99.90
74488;DHT22;63019;51.080;13.642;2023-06-26T01:10:03;18.30;99.90
74488;DHT22;63019;51.080;13.642;2023-06-26T01:11:06;18.20;99.90
74488;DHT22;63019;51.080;13.642;2023-06-26T01:12:08;18.20;99.90
74488;DHT22;63019;51.080;13.642;2023-06-26T01:13:12;18.20;99.90
74488;DHT22;63019;51.080;13.642;2023-06-26T01:14:14;18.10;99.90
74488;DHT22;63019;51.080;13.642;2023-06-26T01:15:16;18.10;99.90
74488;DHT22;63019;51.080;13.642;2023-06-26T01:16:19;18.10;99.90
74488;DHT22;63019;51.080;13.642;2023-06-26T01:17:22;18.10;99.90
74488;DHT22;63019;51.080;13.642;2023-06-26T01:18:25;18.10;99.90
74488;DHT22;63019;51.080;13.642;2023-06-26T01:19:30;18.10;99.90
74488;DHT22;63019;51.080;13.642;2023-06-26T01:20:37;18.00;99.90
74488;DHT22;63019;51.080;13.642;2023-06-26T01:21:44;18.00;99.90
74488;DHT22;63019;51.080;13.642;2023-06-26T01:24:18;18.00;99.90
74488;DHT22;63019;51.080;13.642;2023-06-26T01:26:40;18.00;99.90
74488;DHT22;63019;51.080;13.642;2023-06-26T01:27:49;18.00;99.90
74488;DHT22;63019;51.080;13.642;2023-06-26T01:28:53;17.90;99.90
74488;DHT22;63019;51.080;13.642;2023-06-26T01:29:55;17.90;99.90
74488;DHT22;63019;51.080;13.642;2023-06-26T01:30:58;17.90;99.90
74488;DHT22;63019;51.080;13.642;2023-06-26T01:32:01;17.90;99.90
74488;DHT22;63019;51.080;13.642;2023-06-26T01:33:03;17.80;99.90
74488;DHT22;63019;51.080;13.642;2023-06-26T01:34:06;17.80;99.90
74488;DHT22;63019;51.080;13.642;2023-06-26T01:35:08;17.80;99.90
74488;DHT22;63019;51.080;13.642;2023-06-26T01:36:11;17.80;99.90
74488;DHT22;63019;51.080;13.642;2023-06-26T01:37:12;17.80;99.90
74488;DHT22;63019;51.080;13.642;2023-06-26T01:38:19;17.80;99.90
74488;DHT22;63019;51.080;13.642;2023-06-26T01:39:21;17.70;99.90
74488;DHT22;63019;51.080;13.642;2023-06-26T01:40:23;17.70;99.90
74488;DHT22;63019;51.080;13.642;2023-06-26T01:41:25;17.70;99.90
74488;DHT22;63019;51.080;13.642;2023-06-26T01:42:27;17.80;99.90
74488;DHT22;63019;51.080;13.642;2023-06-26T01:45:12;17.70;99.90
74488;DHT22;63019;51.080;13.642;2023-06-26T01:46:54;17.70;99.90
74488;DHT22;63019;51.080;13.642;2023-06-26T01:47:50;17.70;99.90
74488;DHT22;63019;51.080;13.642;2023-06-26T01:50:17;17.60;99.90
74488;DHT22;63019;51.080;13.642;2023-06-26T01:51:25;17.70;99.90
74488;DHT22;63019;51.080;13.642;2023-06-26T01:53:46;17.60;99.90
74488;DHT22;63019;51.080;13.642;2023-06-26T01:55:02;17.60;99.90
74488;DHT22;63019;51.080;13.642;2023-06-26T01:56:13;17.60;99.90
74488;DHT22;63019;51.080;13.642;2023-06-26T01:57:17;17.60;99.90
74488;DHT22;63019;51.080;13.642;2023-06-26T01:58:22;17.60;99.90
74488;DHT22;63019;51.080;13.642;2023-06-26T01:59:28;17.60;99.90
74488;DHT22;63019;51.080;13.642;2023-06-26T02:00:31;17.60;99.90
74488;DHT22;63019;51.080;13.642;2023-06-26T02:01:33;17.60;99.90
74488;DHT22;63019;51.080;13.642;2023-06-26T02:02:35;17.60;99.90
74488;DHT22;63019;51.080;13.642;2023-06-26T02:03:38;17.60;99.90
74488;DHT22;63019;51.080;13.642;2023-06-26T02:04:40;17.60;99.90
74488;DHT22;63019;51.080;13.642;2023-06-26T02:05:42;17.60;99.90
74488;DHT22;63019;51.080;13.642;2023-06-26T02:06:44;17.60;99.90
74488;DHT22;63019;51.080;13.642;2023-06-26T02:07:46;17.60;99.90
74488;DHT22;63019;51.080;13.642;2023-06-26T02:08:48;17.50;99.90
74488;DHT22;63019;51.080;13.642;2023-06-26T02:09:50;17.60;99.90
74488;DHT22;63019;51.080;13.642;2023-06-26T02:10:52;17.60;99.90
74488;DHT22;63019;51.080;13.642;2023-06-26T02:11:54;17.60;99.90
74488;DHT22;63019;51.080;13.642;2023-06-26T02:12:56;17.50;99.90
74488;DHT22;63019;51.080;13.642;2023-06-26T02:13:58;17.60;99.90
74488;DHT22;63019;51.080;13.642;2023-06-26T02:15:00;17.50;99.90
74488;DHT22;63019;51.080;13.642;2023-06-26T02:16:01;17.50;99.90
74488;DHT22;63019;51.080;13.642;2023-06-26T02:17:04;17.50;99.90
74488;DHT22;63019;51.080;13.642;2023-06-26T02:18:06;17.50;99.90
74488;DHT22;63019;51.080;13.642;2023-06-26T02:19:08;17.50;99.90
74488;DHT22;63019;51.080;13.642;2023-06-26T02:20:10;17.50;99.90
74488;DHT22;63019;51.080;13.642;2023-06-26T02:21:13;17.50;99.90
74488;DHT22;63019;51.080;13.642;2023-06-26T02:22:15;17.40;99.90
74488;DHT22;63019;51.080;13.642;2023-06-26T02:23:17;17.40;99.90
74488;DHT22;63019;51.080;13.642;2023-06-26T02:24:19;17.40;99.90
74488;DHT22;63019;51.080;13.642;2023-06-26T02:25:22;17.40;99.90
74488;DHT22;63019;51.080;13.642;2023-06-26T02:26:23;17.40;99.90
74488;DHT22;63019;51.080;13.642;2023-06-26T02:27:26;17.40;99.90
74488;DHT22;63019;51.080;13.642;2023-06-26T02:28:28;17.40;99.90
74488;DHT22;63019;51.080;13.642;2023-06-26T02:29:29;17.40;99.90
74488;DHT22;63019;51.080;13.642;2023-06-26T02:30:31;17.40;99.90
74488;DHT22;63019;51.080;13.642;2023-06-26T02:31:33;17.30;99.90
74488;DHT22;63019;51.080;13.642;2023-06-26T02:32:35;17.40;99.90
74488;DHT22;63019;51.080;13.642;2023-06-26T02:33:37;17.40;99.90
74488;DHT22;63019;51.080;13.642;2023-06-26T02:34:39;17.40;99.90
74488;DHT22;63019;51.080;13.642;2023-06-26T02:35:41;17.30;99.90
74488;DHT22;63019;51.080;13.642;2023-06-26T02:36:43;17.30;99.90
74488;DHT22;63019;51.080;13.642;2023-06-26T02:37:44;17.30;99.90
74488;DHT22;63019;51.080;13.642;2023-06-26T02:38:46;17.30;99.90
74488;DHT22;63019;51.080;13.642;2023-06-26T02:39:48;17.30;99.90
74488;DHT22;63019;51.080;13.642;2023-06-26T02:40:53;17.30;99.90
74488;DHT22;63019;51.080;13.642;2023-06-26T02:41:55;17.40;99.90
74488;DHT22;63019;51.080;13.642;2023-06-26T02:42:57;17.30;99.90
74488;DHT22;63019;51.080;13.642;2023-06-26T02:43:59;17.30;99.90
74488;DHT22;63019;51.080;13.642;2023-06-26T02:45:00;17.30;99.90
74488;DHT22;63019;51.080;13.642;2023-06-26T02:46:02;17.30;99.90
74488;DHT22;63019;51.080;13.642;2023-06-26T02:47:04;17.30;99.90
74488;DHT22;63019;51.080;13.642;2023-06-26T02:48:06;17.30;99.90
74488;DHT22;63019;51.080;13.642;2023-06-26T02:49:08;17.30;99.90
74488;DHT22;63019;51.080;13.642;2023-06-26T02:50:10;17.30;99.90
74488;DHT22;63019;51.080;13.642;2023-06-26T02:51:12;17.30;99.90
74488;DHT22;63019;51.080;13.642;2023-06-26T02:52:14;17.30;99.90
74488;DHT22;63019;51.080;13.642;2023-06-26T02:53:16;17.30;99.90
74488;DHT22;63019;51.080;13.642;2023-06-26T02:54:17;17.30;99.90
74488;DHT22;63019;51.080;13.642;2023-06-26T02:55:19;17.30;99.90
74488;DHT22;63019;51.080;13.642;2023-06-26T02:56:24;17.30;99.90
74488;DHT22;63019;51.080;13.642;2023-06-26T02:57:25;17.30;99.90
74488;DHT22;63019;51.080;13.642;2023-06-26T02:58:27;17.30;99.90
74488;DHT22;63019;51.080;13.642;2023-06-26T02:59:29;17.30;99.90
74488;DHT22;63019;51.080;13.642;2023-06-26T03:00:31;17.30;99.90
74488;DHT22;63019;51.080;13.642;2023-06-26T03:01:33;17.30;99.90
74488;DHT22;63019;51.080;13.642;2023-06-26T03:02:35;17.30;99.90
74488;DHT22;63019;51.080;13.642;2023-06-26T03:03:37;17.40;99.90
74488;DHT22;63019;51.080;13.642;2023-06-26T03:04:42;17.40;99.90
74488;DHT22;63019;51.080;13.642;2023-06-26T03:05:45;17.40;99.90
74488;DHT22;63019;51.080;13.642;2023-06-26T03:06:47;17.40;99.90
74488;DHT22;63019;51.080;13.642;2023-06-26T03:07:49;17.40;99.90
74488;DHT22;63019;51.080;13.642;2023-06-26T03:08:51;17.40;99.90
74488;DHT22;63019;51.080;13.642;2023-06-26T03:09:53;17.40;99.90
74488;DHT22;63019;51.080;13.642;2023-06-26T03:10:54;17.40;99.90
74488;DHT22;63019;51.080;13.642;2023-06-26T03:11:56;17.40;99.90
74488;DHT22;63019;51.080;13.642;2023-06-26T03:12:58;17.40;99.90
74488;DHT22;63019;51.080;13.642;2023-06-26T03:14:00;17.30;99.90
74488;DHT22;63019;51.080;13.642;2023-06-26T03:15:02;17.30;99.90
74488;DHT22;63019;51.080;13.642;2023-06-26T03:16:05;17.30;99.90
74488;DHT22;63019;51.080;13.642;2023-06-26T03:17:07;17.30;99.90
74488;DHT22;63019;51.080;13.642;2023-06-26T03:18:09;17.30;99.90
74488;DHT22;63019;51.080;13.642;2023-06-26T03:19:11;17.20;99.90
74488;DHT22;63019;51.080;13.642;2023-06-26T03:20:13;17.20;99.90
74488;DHT22;63019;51.080;13.642;2023-06-26T03:21:14;17.20;99.90
74488;DHT22;63019;51.080;13.642;2023-06-26T03:22:16;17.20;99.90
74488;DHT22;63019;51.080;13.642;2023-06-26T03:23:18;17.30;99.90
74488;DHT22;63019;51.080;13.642;2023-06-26T03:24:20;17.30;99.90
74488;DHT22;63019;51.080;13.642;2023-06-26T03:25:22;17.20;99.90
74488;DHT22;63019;51.080;13.642;2023-06-26T03:26:24;17.30;99.90
74488;DHT22;63019;51.080;13.642;2023-06-26T03:27:29;17.30;99.90
74488;DHT22;63019;51.080;13.642;2023-06-26T03:28:30;17.30;99.90
74488;DHT22;63019;51.080;13.642;2023-06-26T03:29:32;17.30;99.90
74488;DHT22;63019;51.080;13.642;2023-06-26T03:30:34;17.30;99.90
74488;DHT22;63019;51.080;13.642;2023-06-26T03:31:36;17.40;99.90
74488;DHT22;63019;51.080;13.642;2023-06-26T03:32:38;17.40;99.90
74488;DHT22;63019;51.080;13.642;2023-06-26T03:33:40;17.40;99.90
74488;DHT22;63019;51.080;13.642;2023-06-26T03:34:42;17.40;99.90
74488;DHT22;63019;51.080;13.642;2023-06-26T03:35:44;17.40;99.90
74488;DHT22;63019;51.080;13.642;2023-06-26T03:36:46;17.40;99.90
74488;DHT22;63019;51.080;13.642;2023-06-26T03:37:49;17.40;99.90
74488;DHT22;63019;51.080;13.642;2023-06-26T03:38:51;17.40;99.90
74488;DHT22;63019;51.080;13.642;2023-06-26T03:39:54;17.40;99.90
74488;DHT22;63019;51.080;13.642;2023-06-26T03:40:56;17.40;99.90
74488;DHT22;63019;51.080;13.642;2023-06-26T03:41:58;17.40;99.90
74488;DHT22;63019;51.080;13.642;2023-06-26T03:43:02;17.50;99.90
74488;DHT22;63019;51.080;13.642;2023-06-26T03:44:04;17.50;99.90
74488;DHT22;63019;51.080;13.642;2023-06-26T03:45:06;17.50;99.90
74488;DHT22;63019;51.080;13.642;2023-06-26T03:46:08;17.50;99.90
74488;DHT22;63019;51.080;13.642;2023-06-26T03:47:10;17.50;99.90
74488;DHT22;63019;51.080;13.642;2023-06-26T03:48:12;17.40;99.90
74488;DHT22;63019;51.080;13.642;2023-06-26T03:49:13;17.50;99.90
74488;DHT22;63019;51.080;13.642;2023-06-26T03:50:16;17.50;99.90
74488;DHT22;63019;51.080;13.642;2023-06-26T03:51:18;17.50;99.90
74488;DHT22;63019;51.080;13.642;2023-06-26T03:52:20;17.50;99.90
74488;DHT22;63019;51.080;13.642;2023-06-26T03:53:22;17.60;99.90
74488;DHT22;63019;51.080;13.642;2023-06-26T03:54:25;17.60;99.90
74488;DHT22;63019;51.080;13.642;2023-06-26T03:55:27;17.60;99.90
74488;DHT22;63019;51.080;13.642;2023-06-26T03:56:29;17.60;99.90
74488;DHT22;63019;51.080;13.642;2023-06-26T03:57:31;17.60;99.90
74488;DHT22;63019;51.080;13.642;2023-06-26T03:58:33;17.60;99.90
74488;DHT22;63019;51.080;13.642;2023-06-26T03:59:36;17.60;99.90
74488;DHT22;63019;51.080;13.642;2023-06-26T04:00:38;17.60;99.90
74488;DHT22;63019;51.080;13.642;2023-06-26T04:01:40;17.70;99.90
74488;DHT22;63019;51.080;13.642;2023-06-26T04:02:42;17.70;99.90
74488;DHT22;63019;51.080;13.642;2023-06-26T04:03:44;17.70;99.90
74488;DHT22;63019;51.080;13.642;2023-06-26T04:04:46;17.60;99.90
74488;DHT22;63019;51.080;13.642;2023-06-26T04:05:48;17.60;99.90
74488;DHT22;63019;51.080;13.642;2023-06-26T04:06:49;17.60;99.90
74488;DHT22;63019;51.080;13.642;2023-06-26T04:07:52;17.60;99.90
74488;DHT22;63019;51.080;13.642;2023-06-26T04:08:54;17.70;99.90
74488;DHT22;63019;51.080;13.642;2023-06-26T04:09:56;17.70;99.90
74488;DHT22;63019;51.080;13.642;2023-06-26T04:10:58;17.80;99.90
74488;DHT22;63019;51.080;13.642;2023-06-26T04:12:00;17.80;99.90
74488;DHT22;63019;51.080;13.642;2023-06-26T04:13:02;17.80;99.90
74488;DHT22;63019;51.080;13.642;2023-06-26T04:14:04;17.80;99.90
74488;DHT22;63019;51.080;13.642;2023-06-26T04:15:06;17.80;99.90
74488;DHT22;63019;51.080;13.642;2023-06-26T04:16:08;17.80;99.90
74488;DHT22;63019;51.080;13.642;2023-06-26T04:17:13;17.90;99.90
74488;DHT22;63019;51.080;13.642;2023-06-26T04:18:15;17.90;99.90
74488;DHT22;63019;51.080;13.642;2023-06-26T04:19:16;18.00;99.90
74488;DHT22;63019;51.080;13.642;2023-06-26T04:20:18;18.00;99.90
74488;DHT22;63019;51.080;13.642;2023-06-26T04:21:20;18.00;99.90
74488;DHT22;63019;51.080;13.642;2023-06-26T04:22:22;18.10;99.90
74488;DHT22;63019;51.080;13.642;2023-06-26T04:23:24;18.10;99.90
74488;DHT22;63019;51.080;13.642;2023-06-26T04:24:26;18.10;99.90
74488;DHT22;63019;51.080;13.642;2023-06-26T04:25:28;18.20;99.90
74488;DHT22;63019;51.080;13.642;2023-06-26T04:26:30;18.20;99.90
74488;DHT22;63019;51.080;13.642;2023-06-26T04:27:32;18.20;99.90
74488;DHT22;63019;51.080;13.642;2023-06-26T04:28:37;18.30;99.90
74488;DHT22;63019;51.080;13.642;2023-06-26T04:29:39;18.30;99.90
74488;DHT22;63019;51.080;13.642;2023-06-26T04:30:41;18.40;99.90
74488;DHT22;63019;51.080;13.642;2023-06-26T04:31:43;18.40;99.90
74488;DHT22;63019;51.080;13.642;2023-06-26T04:32:48;18.40;99.90
74488;DHT22;63019;51.080;13.642;2023-06-26T04:33:50;18.50;99.90
74488;DHT22;63019;51.080;13.642;2023-06-26T04:34:52;18.50;99.90
74488;DHT22;63019;51.080;13.642;2023-06-26T04:35:54;18.50;99.90
74488;DHT22;63019;51.080;13.642;2023-06-26T04:36:56;18.60;99.90
74488;DHT22;63019;51.080;13.642;2023-06-26T04:37:58;18.60;99.90
74488;DHT22;63019;51.080;13.642;2023-06-26T04:39:00;18.60;99.90
74488;DHT22;63019;51.080;13.642;2023-06-26T04:40:02;18.70;99.90
74488;DHT22;63019;51.080;13.642;2023-06-26T04:41:05;18.70;99.90
74488;DHT22;63019;51.080;13.642;2023-06-26T04:42:07;18.70;99.90
74488;DHT22;63019;51.080;13.642;2023-06-26T04:43:09;18.80;99.90
74488;DHT22;63019;51.080;13.642;2023-06-26T04:44:12;18.80;99.90
74488;DHT22;63019;51.080;13.642;2023-06-26T04:45:14;18.80;99.90
74488;DHT22;63019;51.080;13.642;2023-06-26T04:46:15;18.90;99.90
74488;DHT22;63019;51.080;13.642;2023-06-26T04:47:18;18.90;99.90
74488;DHT22;63019;51.080;13.642;2023-06-26T04:48:20;18.90;99.90
74488;DHT22;63019;51.080;13.642;2023-06-26T04:49:22;18.90;99.90
74488;DHT22;63019;51.080;13.642;2023-06-26T04:50:24;18.90;99.90
74488;DHT22;63019;51.080;13.642;2023-06-26T04:51:26;18.90;99.90
74488;DHT22;63019;51.080;13.642;2023-06-26T04:52:28;19.00;99.90
74488;DHT22;63019;51.080;13.642;2023-06-26T04:53:30;19.00;99.90
74488;DHT22;63019;51.080;13.642;2023-06-26T04:54:32;19.00;99.90
74488;DHT22;63019;51.080;13.642;2023-06-26T04:55:35;19.00;99.90
74488;DHT22;63019;51.080;13.642;2023-06-26T04:56:40;19.10;99.90
74488;DHT22;63019;51.080;13.642;2023-06-26T04:57:42;19.10;99.90
74488;DHT22;63019;51.080;13.642;2023-06-26T04:58:43;19.10;99.90
74488;DHT22;63019;51.080;13.642;2023-06-26T04:59:45;19.10;99.90
74488;DHT22;63019;51.080;13.642;2023-06-26T05:00:47;19.10;99.90
74488;DHT22;63019;51.080;13.642;2023-06-26T05:01:49;19.10;99.90
74488;DHT22;63019;51.080;13.642;2023-06-26T05:02:51;19.10;99.90
74488;DHT22;63019;51.080;13.642;2023-06-26T05:04:03;19.20;99.90
74488;DHT22;63019;51.080;13.642;2023-06-26T05:05:05;19.20;99.90
74488;DHT22;63019;51.080;13.642;2023-06-26T05:06:07;19.20;99.90
74488;DHT22;63019;51.080;13.642;2023-06-26T05:07:10;19.20;99.90
74488;DHT22;63019;51.080;13.642;2023-06-26T05:08:23;19.20;99.90
74488;DHT22;63019;51.080;13.642;2023-06-26T05:09:25;19.30;99.90
74488;DHT22;63019;51.080;13.642;2023-06-26T05:10:26;19.30;99.90
74488;DHT22;63019;51.080;13.642;2023-06-26T05:11:28;19.30;99.90
74488;DHT22;63019;51.080;13.642;2023-06-26T05:12:30;19.30;99.90
74488;DHT22;63019;51.080;13.642;2023-06-26T05:13:32;19.30;99.90
74488;DHT22;63019;51.080;13.642;2023-06-26T05:14:34;19.30;99.90
74488;DHT22;63019;51.080;13.642;2023-06-26T05:15:36;19.30;99.90
74488;DHT22;63019;51.080;13.642;2023-06-26T05:16:37;19.40;99.90
74488;DHT22;63019;51.080;13.642;2023-06-26T05:17:39;19.40;99.90
74488;DHT22;63019;51.080;13.642;2023-06-26T05:18:41;19.40;99.90
74488;DHT22;63019;51.080;13.642;2023-06-26T05:19:43;19.40;99.90
74488;DHT22;63019;51.080;13.642;2023-06-26T05:20:45;19.50;99.90
74488;DHT22;63019;51.080;13.642;2023-06-26T05:21:48;19.50;99.90
74488;DHT22;63019;51.080;13.642;2023-06-26T05:22:50;19.50;99.90
74488;DHT22;63019;51.080;13.642;2023-06-26T05:23:56;19.60;99.90
74488;DHT22;63019;51.080;13.642;2023-06-26T05:24:59;19.60;99.90
74488;DHT22;63019;51.080;13.642;2023-06-26T05:26:03;19.70;99.90
74488;DHT22;63019;51.080;13.642;2023-06-26T05:27:05;19.70;99.90
74488;DHT22;63019;51.080;13.642;2023-06-26T05:28:07;19.70;99.90
74488;DHT22;63019;51.080;13.642;2023-06-26T05:29:12;19.70;99.90
74488;DHT22;63019;51.080;13.642;2023-06-26T05:30:14;19.70;99.90
74488;DHT22;63019;51.080;13.642;2023-06-26T05:31:16;19.80;99.90
74488;DHT22;63019;51.080;13.642;2023-06-26T05:32:18;19.80;99.90
74488;DHT22;63019;51.080;13.642;2023-06-26T05:33:24;19.90;99.90
74488;DHT22;63019;51.080;13.642;2023-06-26T05:34:26;19.90;99.90
74488;DHT22;63019;51.080;13.642;2023-06-26T05:35:30;20.00;99.90
74488;DHT22;63019;51.080;13.642;2023-06-26T05:36:33;20.00;99.90
74488;DHT22;63019;51.080;13.642;2023-06-26T05:37:35;20.00;99.90
74488;DHT22;63019;51.080;13.642;2023-06-26T05:38:38;20.10;99.90
74488;DHT22;63019;51.080;13.642;2023-06-26T05:39:40;20.10;99.90
74488;DHT22;63019;51.080;13.642;2023-06-26T05:40:42;20.10;99.90
74488;DHT22;63019;51.080;13.642;2023-06-26T05:41:45;20.20;99.90
74488;DHT22;63019;51.080;13.642;2023-06-26T05:42:47;20.20;99.90
74488;DHT22;63019;51.080;13.642;2023-06-26T05:43:49;20.20;99.90
74488;DHT22;63019;51.080;13.642;2023-06-26T05:44:51;20.30;99.90
74488;DHT22;63019;51.080;13.642;2023-06-26T05:45:53;20.30;99.90
74488;DHT22;63019;51.080;13.642;2023-06-26T05:46:54;20.40;99.90
74488;DHT22;63019;51.080;13.642;2023-06-26T05:47:56;20.40;99.90
74488;DHT22;63019;51.080;13.642;2023-06-26T05:48:58;20.40;99.90
74488;DHT22;63019;51.080;13.642;2023-06-26T05:50:00;20.40;99.90
74488;DHT22;63019;51.080;13.642;2023-06-26T05:51:03;20.50;99.90
74488;DHT22;63019;51.080;13.642;2023-06-26T05:52:05;20.50;99.90
74488;DHT22;63019;51.080;13.642;2023-06-26T05:53:08;20.60;99.90
74488;DHT22;63019;51.080;13.642;2023-06-26T05:54:10;20.60;99.90
74488;DHT22;63019;51.080;13.642;2023-06-26T05:55:15;20.70;99.90
74488;DHT22;63019;51.080;13.642;2023-06-26T05:56:17;20.70;99.90
74488;DHT22;63019;51.080;13.642;2023-06-26T05:57:20;20.80;99.90
74488;DHT22;63019;51.080;13.642;2023-06-26T05:58:24;20.80;99.90
74488;DHT22;63019;51.080;13.642;2023-06-26T05:59:27;20.90;99.90
74488;DHT22;63019;51.080;13.642;2023-06-26T06:00:30;20.90;99.90
74488;DHT22;63019;51.080;13.642;2023-06-26T06:01:32;20.90;99.90
74488;DHT22;63019;51.080;13.642;2023-06-26T06:02:35;21.00;99.90
74488;DHT22;63019;51.080;13.642;2023-06-26T06:03:39;21.00;99.90
74488;DHT22;63019;51.080;13.642;2023-06-26T06:04:41;21.10;99.90
74488;DHT22;63019;51.080;13.642;2023-06-26T06:05:43;21.10;99.90
74488;DHT22;63019;51.080;13.642;2023-06-26T06:06:46;21.20;99.90
74488;DHT22;63019;51.080;13.642;2023-06-26T06:07:48;21.30;99.90
74488;DHT22;63019;51.080;13.642;2023-06-26T06:08:50;21.30;99.90
74488;DHT22;63019;51.080;13.642;2023-06-26T06:09:51;21.40;99.90
74488;DHT22;63019;51.080;13.642;2023-06-26T06:10:53;21.40;99.90
74488;DHT22;63019;51.080;13.642;2023-06-26T06:11:55;21.40;99.90
74488;DHT22;63019;51.080;13.642;2023-06-26T06:12:57;21.50;99.90
74488;DHT22;63019;51.080;13.642;2023-06-26T06:13:59;21.50;99.90
74488;DHT22;63019;51.080;13.642;2023-06-26T06:15:01;21.50;99.90
74488;DHT22;63019;51.080;13.642;2023-06-26T06:16:03;21.60;99.90
74488;DHT22;63019;51.080;13.642;2023-06-26T06:17:05;21.60;99.90
74488;DHT22;63019;51.080;13.642;2023-06-26T06:18:07;21.70;99.90
74488;DHT22;63019;51.080;13.642;2023-06-26T06:19:09;21.80;99.90
74488;DHT22;63019;51.080;13.642;2023-06-26T06:20:13;21.80;99.90
74488;DHT22;63019;51.080;13.642;2023-06-26T06:21:16;21.90;99.90
74488;DHT22;63019;51.080;13.642;2023-06-26T06:22:18;22.00;99.90
74488;DHT22;63019;51.080;13.642;2023-06-26T06:23:20;22.00;99.90
74488;DHT22;63019;51.080;13.642;2023-06-26T06:24:22;22.10;99.90
74488;DHT22;63019;51.080;13.642;2023-06-26T06:25:24;22.20;99.90
74488;DHT22;63019;51.080;13.642;2023-06-26T06:26:26;22.20;99.90
74488;DHT22;63019;51.080;13.642;2023-06-26T06:27:27;22.30;99.90
74488;DHT22;63019;51.080;13.642;2023-06-26T06:28:29;22.40;99.90
74488;DHT22;63019;51.080;13.642;2023-06-26T06:29:31;22.40;99.90
74488;DHT22;63019;51.080;13.642;2023-06-26T06:30:33;22.50;99.90
74488;DHT22;63019;51.080;13.642;2023-06-26T06:31:46;22.60;99.90
74488;DHT22;63019;51.080;13.642;2023-06-26T06:32:48;22.60;99.90
74488;DHT22;63019;51.080;13.642;2023-06-26T06:33:53;22.70;99.90
74488;DHT22;63019;51.080;13.642;2023-06-26T06:34:55;22.80;99.90
74488;DHT22;63019;51.080;13.642;2023-06-26T06:35:57;22.90;99.90
74488;DHT22;63019;51.080;13.642;2023-06-26T06:36:59;22.90;99.90